sensor_id;sensor_type;location;lat;lon;timestamp;temperature;humidity
63047;DHT22;62025;39.238;9.126;2024-03-23T00:54:37;16.70;70.70
63047;DHT22;62025;39.238;9.126;2024-03-23T00:57:03;16.70;70.80
63047;DHT22;62025;39.238;9.126;2024-03-23T00:59:29;16.70;70.80
63047;DHT22;62025;39.238;9.126;2024-03-23T01:01:56;16.60;70.90
63047;DHT22;62025;39.238;9.126;2024-03-23T01:04:22;16.70;70.90
63047;DHT22;62025;39.238;9.126;2024-03-23T01:06:48;16.60;70.90
63047;DHT22;62025;39.238;9.126;2024-03-23T01:09:14;16.60;71.10
63047;DHT22;62025;39.238;9.126;2024-03-23T01:11:40;16.60;71.00
63047;DHT22;62025;39.238;9.126;2024-03-23T01:14:06;16.60;71.00
63047;DHT22;62025;39.238;9.126;2024-03-23T01:16:33;16.60;71.00
63047;DHT22;62025;39.238;9.126;2024-03-23T01:18:59;16.50;71.10
63047;DHT22;62025;39.238;9.126;2024-03-23T01:21:25;16.50;71.20
63047;DHT22;62025;39.238;9.126;2024-03-23T01:23:51;16.50;71.20
63047;DHT22;62025;39.238;9.126;2024-03-23T01:26:17;16.50;71.20
63047;DHT22;62025;39.238;9.126;2024-03-23T01:28:43;16.50;71.20
63047;DHT22;62025;39.238;9.126;2024-03-23T01:31:09;16.50;71.30
63047;DHT22;62025;39.238;9.126;2024-03-23T01:33:35;16.50;71.30
63047;DHT22;62025;39.238;9.126;2024-03-23T01:36:01;16.50;71.30
63047;DHT22;62025;39.238;9.126;2024-03-23T01:38:27;16.40;71.50
63047;DHT22;62025;39.238;9.126;2024-03-23T01:40:57;16.50;71.40
63047;DHT22;62025;39.238;9.126;2024-03-23T01:43:23;16.40;71.40
63047;DHT22;62025;39.238;9.126;2024-03-23T01:45:50;16.40;71.50
63047;DHT22;62025;39.238;9.126;2024-03-23T01:48:20;16.50;71.40
63047;DHT22;62025;39.238;9.126;2024-03-23T01:50:46;16.40;71.40
63047;DHT22;62025;39.238;9.126;2024-03-23T01:53:14;16.40;71.50
63047;DHT22;62025;39.238;9.126;2024-03-23T01:55:43;16.40;71.50
63047;DHT22;62025;39.238;9.126;2024-03-23T01:58:09;16.40;71.40
63047;DHT22;62025;39.238;9.126;2024-03-23T02:00:36;16.50;71.50
63047;DHT22;62025;39.238;9.126;2024-03-23T02:03:02;16.40;71.50
63047;DHT22;62025;39.238;9.126;2024-03-23T02:05:47;16.40;71.50
63047;DHT22;62025;39.238;9.126;2024-03-23T02:08:13;16.40;71.50
63047;DHT22;62025;39.238;9.126;2024-03-23T02:10:40;16.40;71.50
63047;DHT22;62025;39.238;9.126;2024-03-23T02:13:06;16.40;71.50
63047;DHT22;62025;39.238;9.126;2024-03-23T02:15:32;16.40;71.60
63047;DHT22;62025;39.238;9.126;2024-03-23T02:17:59;16.40;71.60
63047;DHT22;62025;39.238;9.126;2024-03-23T02:20:25;16.40;71.70
63047;DHT22;62025;39.238;9.126;2024-03-23T02:22:53;16.40;71.70
63047;DHT22;62025;39.238;9.126;2024-03-23T02:25:19;16.30;71.80
63047;DHT22;62025;39.238;9.126;2024-03-23T02:27:45;16.40;71.80
63047;DHT22;62025;39.238;9.126;2024-03-23T02:30:11;16.30;71.90
63047;DHT22;62025;39.238;9.126;2024-03-23T02:32:37;16.40;71.90
63047;DHT22;62025;39.238;9.126;2024-03-23T02:35:03;16.40;71.80
63047;DHT22;62025;39.238;9.126;2024-03-23T02:37:30;16.40;71.90
63047;DHT22;62025;39.238;9.126;2024-03-23T02:39:56;16.40;71.80
63047;DHT22;62025;39.238;9.126;2024-03-23T02:42:22;16.40;71.80
63047;DHT22;62025;39.238;9.126;2024-03-23T02:44:48;16.40;71.80
63047;DHT22;62025;39.238;9.126;2024-03-23T02:47:14;16.40;71.70
63047;DHT22;62025;39.238;9.126;2024-03-23T02:49:40;16.40;71.70
63047;DHT22;62025;39.238;9.126;2024-03-23T02:52:06;16.30;71.70
63047;DHT22;62025;39.238;9.126;2024-03-23T02:54:32;16.30;71.70
63047;DHT22;62025;39.238;9.126;2024-03-23T02:56:58;16.40;71.70
63047;DHT22;62025;39.238;9.126;2024-03-23T02:59:24;16.40;71.50
63047;DHT22;62025;39.238;9.126;2024-03-23T03:01:50;16.30;71.40
63047;DHT22;62025;39.238;9.126;2024-03-23T03:04:16;16.30;71.40
63047;DHT22;62025;39.238;9.126;2024-03-23T03:06:47;16.20;71.40
63047;DHT22;62025;39.238;9.126;2024-03-23T03:09:15;16.30;71.40
63047;DHT22;62025;39.238;9.126;2024-03-23T03:11:41;16.30;71.40
63047;DHT22;62025;39.238;9.126;2024-03-23T03:14:07;16.30;71.40
63047;DHT22;62025;39.238;9.126;2024-03-23T03:16:33;16.20;71.40
63047;DHT22;62025;39.238;9.126;2024-03-23T03:18:59;16.20;71.40
63047;DHT22;62025;39.238;9.126;2024-03-23T03:21:26;16.20;71.40
63047;DHT22;62025;39.238;9.126;2024-03-23T03:23:52;16.20;71.40
63047;DHT22;62025;39.238;9.126;2024-03-23T03:26:18;16.30;71.50
63047;DHT22;62025;39.238;9.126;2024-03-23T03:28:44;16.20;71.50
63047;DHT22;62025;39.238;9.126;2024-03-23T03:31:17;16.20;71.60
63047;DHT22;62025;39.238;9.126;2024-03-23T03:33:44;16.20;71.70
63047;DHT22;62025;39.238;9.126;2024-03-23T03:36:11;16.30;71.70
63047;DHT22;62025;39.238;9.126;2024-03-23T03:38:37;16.30;71.80
63047;DHT22;62025;39.238;9.126;2024-03-23T03:41:04;16.30;71.90
63047;DHT22;62025;39.238;9.126;2024-03-23T03:43:31;16.20;71.90
63047;DHT22;62025;39.238;9.126;2024-03-23T03:45:59;16.20;72.00
63047;DHT22;62025;39.238;9.126;2024-03-23T03:48:26;16.20;72.00
63047;DHT22;62025;39.238;9.126;2024-03-23T03:50:53;16.20;72.00
63047;DHT22;62025;39.238;9.126;2024-03-23T03:53:19;16.30;72.00
63047;DHT22;62025;39.238;9.126;2024-03-23T03:55:46;16.20;72.00
63047;DHT22;62025;39.238;9.126;2024-03-23T03:58:12;16.20;72.10
63047;DHT22;62025;39.238;9.126;2024-03-23T04:00:38;16.20;72.10
63047;DHT22;62025;39.238;9.126;2024-03-23T04:03:04;16.20;72.10
63047;DHT22;62025;39.238;9.126;2024-03-23T04:05:30;16.20;72.20
63047;DHT22;62025;39.238;9.126;2024-03-23T04:07:56;16.10;72.20
63047;DHT22;62025;39.238;9.126;2024-03-23T04:10:22;16.10;72.30
63047;DHT22;62025;39.238;9.126;2024-03-23T04:12:48;16.10;72.30
63047;DHT22;62025;39.238;9.126;2024-03-23T04:15:14;16.10;72.40
63047;DHT22;62025;39.238;9.126;2024-03-23T04:17:40;16.10;72.50
63047;DHT22;62025;39.238;9.126;2024-03-23T04:20:08;16.00;72.50
63047;DHT22;62025;39.238;9.126;2024-03-23T04:22:37;16.00;72.60
63047;DHT22;62025;39.238;9.126;2024-03-23T04:25:04;16.00;72.70
63047;DHT22;62025;39.238;9.126;2024-03-23T04:27:36;16.00;72.80
63047;DHT22;62025;39.238;9.126;2024-03-23T04:30:05;16.00;72.80
63047;DHT22;62025;39.238;9.126;2024-03-23T04:32:39;16.00;72.90
63047;DHT22;62025;39.238;9.126;2024-03-23T04:35:06;16.00;72.90
63047;DHT22;62025;39.238;9.126;2024-03-23T04:37:35;16.00;72.90
63047;DHT22;62025;39.238;9.126;2024-03-23T04:40:03;16.00;72.90
63047;DHT22;62025;39.238;9.126;2024-03-23T04:42:30;16.00;73.00
63047;DHT22;62025;39.238;9.126;2024-03-23T04:44:57;16.00;73.00
63047;DHT22;62025;39.238;9.126;2024-03-23T04:47:23;15.90;73.10
63047;DHT22;62025;39.238;9.126;2024-03-23T04:49:49;15.90;73.10
63047;DHT22;62025;39.238;9.126;2024-03-23T04:52:16;15.90;73.10
63047;DHT22;62025;39.238;9.126;2024-03-23T04:54:43;15.90;73.10
63047;DHT22;62025;39.238;9.126;2024-03-23T04:57:09;15.90;73.10
63047;DHT22;62025;39.238;9.126;2024-03-23T04:59:35;15.90;73.20
63047;DHT22;62025;39.238;9.126;2024-03-23T05:02:01;15.80;73.20
63047;DHT22;62025;39.238;9.126;2024-03-23T05:04:28;15.80;73.20
63047;DHT22;62025;39.238;9.126;2024-03-23T05:06:54;15.80;73.10
63047;DHT22;62025;39.238;9.126;2024-03-23T05:09:20;15.80;73.10
63047;DHT22;62025;39.238;9.126;2024-03-23T05:11:47;15.80;73.10
63047;DHT22;62025;39.238;9.126;2024-03-23T05:14:13;15.80;72.90
63047;DHT22;62025;39.238;9.126;2024-03-23T05:16:40;15.80;73.00
63047;DHT22;62025;39.238;9.126;2024-03-23T05:19:06;15.70;73.10
63047;DHT22;62025;39.238;9.126;2024-03-23T05:21:32;15.70;73.20
63047;DHT22;62025;39.238;9.126;2024-03-23T05:23:58;15.80;73.10
63047;DHT22;62025;39.238;9.126;2024-03-23T05:26:24;15.80;73.00
63047;DHT22;62025;39.238;9.126;2024-03-23T05:28:50;15.70;73.00
63047;DHT22;62025;39.238;9.126;2024-03-23T05:31:23;15.70;73.00
63047;DHT22;62025;39.238;9.126;2024-03-23T05:33:50;15.80;72.90
63047;DHT22;62025;39.238;9.126;2024-03-23T05:36:17;15.80;72.90
63047;DHT22;62025;39.238;9.126;2024-03-23T05:38:43;15.80;72.90
63047;DHT22;62025;39.238;9.126;2024-03-23T05:41:09;15.70;72.80
63047;DHT22;62025;39.238;9.126;2024-03-23T05:43:35;15.80;72.70
63047;DHT22;62025;39.238;9.126;2024-03-23T05:46:01;15.80;72.70
63047;DHT22;62025;39.238;9.126;2024-03-23T05:48:28;15.80;72.70
63047;DHT22;62025;39.238;9.126;2024-03-23T05:50:56;15.80;72.60
63047;DHT22;62025;39.238;9.126;2024-03-23T05:53:23;15.80;72.60
63047;DHT22;62025;39.238;9.126;2024-03-23T05:56:00;15.80;72.40
63047;DHT22;62025;39.238;9.126;2024-03-23T05:58:29;15.80;72.30
63047;DHT22;62025;39.238;9.126;2024-03-23T06:01:00;15.90;72.00
63047;DHT22;62025;39.238;9.126;2024-03-23T06:03:27;15.90;71.80
63047;DHT22;62025;39.238;9.126;2024-03-23T06:05:54;16.00;71.50
63047;DHT22;62025;39.238;9.126;2024-03-23T06:08:21;16.10;71.30
63047;DHT22;62025;39.238;9.126;2024-03-23T06:10:48;16.10;71.10
63047;DHT22;62025;39.238;9.126;2024-03-23T06:13:14;16.10;70.90
63047;DHT22;62025;39.238;9.126;2024-03-23T06:15:40;16.30;70.60
63047;DHT22;62025;39.238;9.126;2024-03-23T06:18:06;16.40;70.50
63047;DHT22;62025;39.238;9.126;2024-03-23T06:20:34;16.40;70.10
63047;DHT22;62025;39.238;9.126;2024-03-23T06:23:03;16.40;69.90
63047;DHT22;62025;39.238;9.126;2024-03-23T06:25:29;16.50;69.60
63047;DHT22;62025;39.238;9.126;2024-03-23T06:27:56;16.70;69.40
63047;DHT22;62025;39.238;9.126;2024-03-23T06:30:24;16.70;69.00
63047;DHT22;62025;39.238;9.126;2024-03-23T06:32:50;16.80;68.70
63047;DHT22;62025;39.238;9.126;2024-03-23T06:35:16;16.90;68.50
63047;DHT22;62025;39.238;9.126;2024-03-23T06:37:42;16.90;68.30
63047;DHT22;62025;39.238;9.126;2024-03-23T06:40:08;17.00;68.00
63047;DHT22;62025;39.238;9.126;2024-03-23T06:42:36;17.20;67.70
63047;DHT22;62025;39.238;9.126;2024-03-23T06:45:03;17.30;67.40
63047;DHT22;62025;39.238;9.126;2024-03-23T06:47:30;17.40;67.10
63047;DHT22;62025;39.238;9.126;2024-03-23T06:49:57;17.50;66.80
63047;DHT22;62025;39.238;9.126;2024-03-23T06:52:23;17.60;66.40
63047;DHT22;62025;39.238;9.126;2024-03-23T06:54:49;17.80;66.10
63047;DHT22;62025;39.238;9.126;2024-03-23T06:57:15;17.90;65.60
63047;DHT22;62025;39.238;9.126;2024-03-23T06:59:41;18.10;65.10
63047;DHT22;62025;39.238;9.126;2024-03-23T07:02:07;18.20;64.50
63047;DHT22;62025;39.238;9.126;2024-03-23T07:04:36;18.30;64.20
63047;DHT22;62025;39.238;9.126;2024-03-23T07:07:02;18.50;63.80
63047;DHT22;62025;39.238;9.126;2024-03-23T07:09:28;18.60;63.50
63047;DHT22;62025;39.238;9.126;2024-03-23T07:11:58;18.80;62.90
63047;DHT22;62025;39.238;9.126;2024-03-23T07:14:24;18.90;62.60
63047;DHT22;62025;39.238;9.126;2024-03-23T07:16:50;19.10;62.00
63047;DHT22;62025;39.238;9.126;2024-03-23T07:19:17;19.30;61.60
63047;DHT22;62025;39.238;9.126;2024-03-23T07:21:46;19.40;61.20
63047;DHT22;62025;39.238;9.126;2024-03-23T07:24:13;19.60;60.80
63047;DHT22;62025;39.238;9.126;2024-03-23T07:26:39;19.70;60.20
63047;DHT22;62025;39.238;9.126;2024-03-23T07:29:07;19.80;59.80
63047;DHT22;62025;39.238;9.126;2024-03-23T07:31:33;20.00;59.30
63047;DHT22;62025;39.238;9.126;2024-03-23T07:33:59;20.10;58.80
63047;DHT22;62025;39.238;9.126;2024-03-23T07:36:25;20.30;58.40
63047;DHT22;62025;39.238;9.126;2024-03-23T07:38:51;20.40;58.00
63047;DHT22;62025;39.238;9.126;2024-03-23T07:41:19;20.60;57.50
63047;DHT22;62025;39.238;9.126;2024-03-23T07:43:47;20.80;57.20
63047;DHT22;62025;39.238;9.126;2024-03-23T07:46:14;20.80;57.00
63047;DHT22;62025;39.238;9.126;2024-03-23T07:48:41;20.80;56.80
63047;DHT22;62025;39.238;9.126;2024-03-23T07:51:17;20.90;56.40
63047;DHT22;62025;39.238;9.126;2024-03-23T07:53:47;21.10;56.20
63047;DHT22;62025;39.238;9.126;2024-03-23T07:56:17;21.20;55.90
63047;DHT22;62025;39.238;9.126;2024-03-23T07:58:45;21.30;55.60
63047;DHT22;62025;39.238;9.126;2024-03-23T08:01:15;21.40;55.30
63047;DHT22;62025;39.238;9.126;2024-03-23T08:03:44;21.40;55.30
63047;DHT22;62025;39.238;9.126;2024-03-23T08:06:18;21.60;55.10
63047;DHT22;62025;39.238;9.126;2024-03-23T08:08:47;21.70;55.00
63047;DHT22;62025;39.238;9.126;2024-03-23T08:11:14;21.70;54.60
63047;DHT22;62025;39.238;9.126;2024-03-23T08:13:41;21.90;54.50
63047;DHT22;62025;39.238;9.126;2024-03-23T08:16:08;21.80;54.40
63047;DHT22;62025;39.238;9.126;2024-03-23T08:18:34;22.00;54.00
63047;DHT22;62025;39.238;9.126;2024-03-23T08:21:05;22.00;53.80
63047;DHT22;62025;39.238;9.126;2024-03-23T08:23:33;22.00;54.00
63047;DHT22;62025;39.238;9.126;2024-03-23T08:26:02;21.90;53.90
63047;DHT22;62025;39.238;9.126;2024-03-23T08:28:29;21.90;54.00
63047;DHT22;62025;39.238;9.126;2024-03-23T08:30:56;22.00;53.90
63047;DHT22;62025;39.238;9.126;2024-03-23T08:33:23;22.10;53.80
63047;DHT22;62025;39.238;9.126;2024-03-23T08:35:56;22.30;53.50
63047;DHT22;62025;39.238;9.126;2024-03-23T08:38:23;22.40;53.20
63047;DHT22;62025;39.238;9.126;2024-03-23T08:41:09;22.50;52.80
63047;DHT22;62025;39.238;9.126;2024-03-23T08:43:38;22.60;52.70
63047;DHT22;62025;39.238;9.126;2024-03-23T08:46:12;22.60;52.40
63047;DHT22;62025;39.238;9.126;2024-03-23T08:48:44;22.80;52.10
63047;DHT22;62025;39.238;9.126;2024-03-23T08:51:15;22.60;52.20
63047;DHT22;62025;39.238;9.126;2024-03-23T08:53:42;22.60;52.30
63047;DHT22;62025;39.238;9.126;2024-03-23T08:56:09;22.80;51.90
63047;DHT22;62025;39.238;9.126;2024-03-23T08:58:37;22.90;51.70
63047;DHT22;62025;39.238;9.126;2024-03-23T09:01:06;22.70;52.00
63047;DHT22;62025;39.238;9.126;2024-03-23T09:03:36;22.80;52.20
63047;DHT22;62025;39.238;9.126;2024-03-23T09:06:15;23.00;51.70
63047;DHT22;62025;39.238;9.126;2024-03-23T09:08:42;22.90;51.90
63047;DHT22;62025;39.238;9.126;2024-03-23T09:11:10;22.70;52.20
63047;DHT22;62025;39.238;9.126;2024-03-23T09:13:37;22.30;52.60
63047;DHT22;62025;39.238;9.126;2024-03-23T09:16:05;22.30;53.00
63047;DHT22;62025;39.238;9.126;2024-03-23T09:18:34;22.20;53.00
63047;DHT22;62025;39.238;9.126;2024-03-23T09:21:04;22.30;52.80
63047;DHT22;62025;39.238;9.126;2024-03-23T09:23:37;22.40;52.40
63047;DHT22;62025;39.238;9.126;2024-03-23T09:26:03;22.50;51.70
63047;DHT22;62025;39.238;9.126;2024-03-23T09:28:29;22.80;51.40
63047;DHT22;62025;39.238;9.126;2024-03-23T09:33:30;22.90;51.10
63047;DHT22;62025;39.238;9.126;2024-03-23T09:35:56;23.10;50.70
63047;DHT22;62025;39.238;9.126;2024-03-23T09:38:23;23.30;50.30
63047;DHT22;62025;39.238;9.126;2024-03-23T09:40:53;23.40;50.10
63047;DHT22;62025;39.238;9.126;2024-03-23T09:43:19;23.30;49.90
63047;DHT22;62025;39.238;9.126;2024-03-23T09:45:46;23.50;49.60
63047;DHT22;62025;39.238;9.126;2024-03-23T09:48:12;23.50;49.50
63047;DHT22;62025;39.238;9.126;2024-03-23T09:50:39;23.50;49.60
63047;DHT22;62025;39.238;9.126;2024-03-23T09:53:11;23.70;49.10
63047;DHT22;62025;39.238;9.126;2024-03-23T09:55:41;23.90;48.70
63047;DHT22;62025;39.238;9.126;2024-03-23T09:58:12;23.90;48.50
63047;DHT22;62025;39.238;9.126;2024-03-23T10:00:39;23.90;48.40
63047;DHT22;62025;39.238;9.126;2024-03-23T10:03:05;24.00;48.50
63047;DHT22;62025;39.238;9.126;2024-03-23T10:05:32;24.30;48.20
63047;DHT22;62025;39.238;9.126;2024-03-23T10:10:43;24.10;47.80
63047;DHT22;62025;39.238;9.126;2024-03-23T10:13:10;24.10;47.60
63047;DHT22;62025;39.238;9.126;2024-03-23T10:15:39;24.20;47.50
63047;DHT22;62025;39.238;9.126;2024-03-23T10:18:19;24.20;47.50
63047;DHT22;62025;39.238;9.126;2024-03-23T10:20:52;24.10;47.80
63047;DHT22;62025;39.238;9.126;2024-03-23T10:23:33;24.30;47.50
63047;DHT22;62025;39.238;9.126;2024-03-23T10:26:23;24.40;47.50
63047;DHT22;62025;39.238;9.126;2024-03-23T10:28:58;24.40;46.80
63047;DHT22;62025;39.238;9.126;2024-03-23T10:31:28;24.40;46.30
63047;DHT22;62025;39.238;9.126;2024-03-23T10:33:54;24.40;46.70
63047;DHT22;62025;39.238;9.126;2024-03-23T10:36:21;24.40;47.10
63047;DHT22;62025;39.238;9.126;2024-03-23T10:38:50;24.40;47.40
63047;DHT22;62025;39.238;9.126;2024-03-23T10:41:18;24.30;47.20
63047;DHT22;62025;39.238;9.126;2024-03-23T10:43:48;24.10;47.10
63047;DHT22;62025;39.238;9.126;2024-03-23T10:46:15;23.90;47.40
63047;DHT22;62025;39.238;9.126;2024-03-23T10:48:41;23.90;47.60
63047;DHT22;62025;39.238;9.126;2024-03-23T10:51:10;24.10;47.50
63047;DHT22;62025;39.238;9.126;2024-03-23T10:53:36;23.80;47.60
63047;DHT22;62025;39.238;9.126;2024-03-23T10:56:06;23.80;48.00
63047;DHT22;62025;39.238;9.126;2024-03-23T10:58:44;23.90;47.90
63047;DHT22;62025;39.238;9.126;2024-03-23T11:01:13;24.00;47.90
63047;DHT22;62025;39.238;9.126;2024-03-23T11:03:45;23.90;47.30
63047;DHT22;62025;39.238;9.126;2024-03-23T11:06:38;23.90;47.20
63047;DHT22;62025;39.238;9.126;2024-03-23T11:15:05;23.30;48.30
63047;DHT22;62025;39.238;9.126;2024-03-23T11:17:36;23.10;49.20
63047;DHT22;62025;39.238;9.126;2024-03-23T11:20:04;23.10;49.30
63047;DHT22;62025;39.238;9.126;2024-03-23T11:25:24;22.90;48.50
63047;DHT22;62025;39.238;9.126;2024-03-23T11:27:56;22.80;49.30
63047;DHT22;62025;39.238;9.126;2024-03-23T11:30:27;22.70;49.70
63047;DHT22;62025;39.238;9.126;2024-03-23T11:32:57;22.60;49.80
63047;DHT22;62025;39.238;9.126;2024-03-23T11:35:26;22.60;50.40
63047;DHT22;62025;39.238;9.126;2024-03-23T11:38:13;22.70;50.50
63047;DHT22;62025;39.238;9.126;2024-03-23T11:43:15;22.60;50.10
63047;DHT22;62025;39.238;9.126;2024-03-23T11:45:46;22.50;50.60
63047;DHT22;62025;39.238;9.126;2024-03-23T11:48:14;22.50;50.90
63047;DHT22;62025;39.238;9.126;2024-03-23T11:50:45;22.50;50.90
63047;DHT22;62025;39.238;9.126;2024-03-23T11:53:19;22.40;50.80
63047;DHT22;62025;39.238;9.126;2024-03-23T11:55:49;22.40;51.00
63047;DHT22;62025;39.238;9.126;2024-03-23T11:58:23;22.40;51.30
63047;DHT22;62025;39.238;9.126;2024-03-23T12:00:51;22.30;51.70
63047;DHT22;62025;39.238;9.126;2024-03-23T12:03:24;22.30;51.60
63047;DHT22;62025;39.238;9.126;2024-03-23T12:05:59;22.30;51.60
63047;DHT22;62025;39.238;9.126;2024-03-23T12:08:31;22.30;52.00
63047;DHT22;62025;39.238;9.126;2024-03-23T12:11:12;22.20;52.40
63047;DHT22;62025;39.238;9.126;2024-03-23T12:13:45;22.20;52.70
63047;DHT22;62025;39.238;9.126;2024-03-23T12:16:21;22.20;52.80
63047;DHT22;62025;39.238;9.126;2024-03-23T12:18:50;22.30;53.10
63047;DHT22;62025;39.238;9.126;2024-03-23T12:21:17;22.30;53.30
63047;DHT22;62025;39.238;9.126;2024-03-23T12:23:43;22.20;53.40
63047;DHT22;62025;39.238;9.126;2024-03-23T12:26:14;22.30;53.60
63047;DHT22;62025;39.238;9.126;2024-03-23T12:28:41;22.30;53.70
63047;DHT22;62025;39.238;9.126;2024-03-23T12:31:07;22.20;54.00
63047;DHT22;62025;39.238;9.126;2024-03-23T12:33:33;22.20;54.10
63047;DHT22;62025;39.238;9.126;2024-03-23T12:35:59;22.40;54.00
63047;DHT22;62025;39.238;9.126;2024-03-23T12:38:25;22.30;54.20
63047;DHT22;62025;39.238;9.126;2024-03-23T12:40:51;22.40;54.40
63047;DHT22;62025;39.238;9.126;2024-03-23T12:43:18;22.30;55.40
63047;DHT22;62025;39.238;9.126;2024-03-23T12:45:48;22.20;55.80
63047;DHT22;62025;39.238;9.126;2024-03-23T12:48:14;22.00;56.00
63047;DHT22;62025;39.238;9.126;2024-03-23T12:50:41;22.20;55.10
63047;DHT22;62025;39.238;9.126;2024-03-23T12:53:07;22.20;55.00
63047;DHT22;62025;39.238;9.126;2024-03-23T12:55:36;22.00;56.70
63047;DHT22;62025;39.238;9.126;2024-03-23T12:58:02;21.80;57.60
63047;DHT22;62025;39.238;9.126;2024-03-23T13:00:29;21.90;56.50
63047;DHT22;62025;39.238;9.126;2024-03-23T13:02:55;22.00;55.50
63047;DHT22;62025;39.238;9.126;2024-03-23T13:05:21;22.00;55.30
63047;DHT22;62025;39.238;9.126;2024-03-23T13:07:47;21.90;55.20
63047;DHT22;62025;39.238;9.126;2024-03-23T13:10:13;22.00;55.20
63047;DHT22;62025;39.238;9.126;2024-03-23T13:12:40;22.10;55.20
63047;DHT22;62025;39.238;9.126;2024-03-23T13:15:08;22.00;55.40
63047;DHT22;62025;39.238;9.126;2024-03-23T13:17:34;22.00;55.60
63047;DHT22;62025;39.238;9.126;2024-03-23T13:20:00;22.00;55.60
63047;DHT22;62025;39.238;9.126;2024-03-23T13:22:26;21.90;55.60
63047;DHT22;62025;39.238;9.126;2024-03-23T13:24:52;22.00;55.50
63047;DHT22;62025;39.238;9.126;2024-03-23T13:27:18;22.00;55.40
63047;DHT22;62025;39.238;9.126;2024-03-23T13:29:45;22.00;55.40
63047;DHT22;62025;39.238;9.126;2024-03-23T13:32:12;21.90;55.30
63047;DHT22;62025;39.238;9.126;2024-03-23T13:34:39;21.90;55.50
63047;DHT22;62025;39.238;9.126;2024-03-23T13:37:05;21.90;55.50
63047;DHT22;62025;39.238;9.126;2024-03-23T13:39:33;22.00;55.40
63047;DHT22;62025;39.238;9.126;2024-03-23T13:41:59;22.00;55.00
63047;DHT22;62025;39.238;9.126;2024-03-23T13:44:25;22.00;54.90
63047;DHT22;62025;39.238;9.126;2024-03-23T13:46:51;21.90;55.00
63047;DHT22;62025;39.238;9.126;2024-03-23T13:49:28;21.90;55.00
63047;DHT22;62025;39.238;9.126;2024-03-23T13:51:56;21.90;55.00
63047;DHT22;62025;39.238;9.126;2024-03-23T13:54:27;21.90;55.10
63047;DHT22;62025;39.238;9.126;2024-03-23T13:56:55;21.90;55.40
63047;DHT22;62025;39.238;9.126;2024-03-23T13:59:22;21.90;55.20
63047;DHT22;62025;39.238;9.126;2024-03-23T14:01:49;21.80;55.10
63047;DHT22;62025;39.238;9.126;2024-03-23T14:04:16;21.80;55.10
63047;DHT22;62025;39.238;9.126;2024-03-23T14:06:46;21.80;55.10
63047;DHT22;62025;39.238;9.126;2024-03-23T14:09:13;21.70;55.10
63047;DHT22;62025;39.238;9.126;2024-03-23T14:11:40;21.70;54.70
63047;DHT22;62025;39.238;9.126;2024-03-23T14:14:09;21.80;54.80
63047;DHT22;62025;39.238;9.126;2024-03-23T14:16:36;21.70;55.00
63047;DHT22;62025;39.238;9.126;2024-03-23T14:19:02;21.70;54.70
63047;DHT22;62025;39.238;9.126;2024-03-23T14:21:30;21.80;54.70
63047;DHT22;62025;39.238;9.126;2024-03-23T14:23:56;21.70;55.00
63047;DHT22;62025;39.238;9.126;2024-03-23T14:26:22;21.60;55.00
63047;DHT22;62025;39.238;9.126;2024-03-23T14:28:49;21.70;55.10
63047;DHT22;62025;39.238;9.126;2024-03-23T14:31:16;21.70;55.30
63047;DHT22;62025;39.238;9.126;2024-03-23T14:33:42;21.70;55.20
63047;DHT22;62025;39.238;9.126;2024-03-23T14:36:15;21.60;55.20
63047;DHT22;62025;39.238;9.126;2024-03-23T14:38:52;21.60;55.20
63047;DHT22;62025;39.238;9.126;2024-03-23T14:41:18;21.60;55.40
63047;DHT22;62025;39.238;9.126;2024-03-23T14:43:44;21.60;55.30
63047;DHT22;62025;39.238;9.126;2024-03-23T14:46:13;21.60;55.20
63047;DHT22;62025;39.238;9.126;2024-03-23T14:48:42;21.50;55.20
63047;DHT22;62025;39.238;9.126;2024-03-23T14:51:09;21.40;55.30
63047;DHT22;62025;39.238;9.126;2024-03-23T14:53:37;21.40;55.20
63047;DHT22;62025;39.238;9.126;2024-03-23T14:56:06;21.40;55.30
63047;DHT22;62025;39.238;9.126;2024-03-23T14:58:33;21.40;55.20
63047;DHT22;62025;39.238;9.126;2024-03-23T15:01:03;21.30;55.40
63047;DHT22;62025;39.238;9.126;2024-03-23T15:03:30;21.40;55.20
63047;DHT22;62025;39.238;9.126;2024-03-23T15:05:58;21.40;55.40
63047;DHT22;62025;39.238;9.126;2024-03-23T15:08:26;21.40;55.20
63047;DHT22;62025;39.238;9.126;2024-03-23T15:10:53;21.40;55.50
63047;DHT22;62025;39.238;9.126;2024-03-23T15:13:19;21.30;55.60
63047;DHT22;62025;39.238;9.126;2024-03-23T15:15:48;21.20;55.80
63047;DHT22;62025;39.238;9.126;2024-03-23T15:18:17;21.10;56.00
63047;DHT22;62025;39.238;9.126;2024-03-23T15:21:00;21.10;55.80
63047;DHT22;62025;39.238;9.126;2024-03-23T15:23:29;21.10;55.70
63047;DHT22;62025;39.238;9.126;2024-03-23T15:25:55;21.10;55.60
63047;DHT22;62025;39.238;9.126;2024-03-23T15:28:23;21.10;55.90
63047;DHT22;62025;39.238;9.126;2024-03-23T15:30:49;21.10;56.10
63047;DHT22;62025;39.238;9.126;2024-03-23T15:33:15;21.00;55.80
63047;DHT22;62025;39.238;9.126;2024-03-23T15:35:41;20.90;56.10
63047;DHT22;62025;39.238;9.126;2024-03-23T15:38:07;20.90;56.40
63047;DHT22;62025;39.238;9.126;2024-03-23T15:40:35;20.90;56.50
63047;DHT22;62025;39.238;9.126;2024-03-23T15:43:01;20.90;56.80
63047;DHT22;62025;39.238;9.126;2024-03-23T15:45:27;20.90;57.00
63047;DHT22;62025;39.238;9.126;2024-03-23T15:47:53;20.90;57.00
63047;DHT22;62025;39.238;9.126;2024-03-23T15:50:19;20.80;57.20
63047;DHT22;62025;39.238;9.126;2024-03-23T15:52:45;20.80;57.30
63047;DHT22;62025;39.238;9.126;2024-03-23T15:55:11;20.70;57.60
63047;DHT22;62025;39.238;9.126;2024-03-23T15:57:37;20.70;57.60
63047;DHT22;62025;39.238;9.126;2024-03-23T16:00:04;20.80;57.40
63047;DHT22;62025;39.238;9.126;2024-03-23T16:02:39;20.70;57.20
63047;DHT22;62025;39.238;9.126;2024-03-23T16:05:05;20.60;57.20
63047;DHT22;62025;39.238;9.126;2024-03-23T16:07:34;20.70;57.50
63047;DHT22;62025;39.238;9.126;2024-03-23T16:10:00;20.60;57.50
63047;DHT22;62025;39.238;9.126;2024-03-23T16:12:31;20.60;57.30
63047;DHT22;62025;39.238;9.126;2024-03-23T16:14:57;20.60;57.40
63047;DHT22;62025;39.238;9.126;2024-03-23T16:17:23;20.60;57.50
63047;DHT22;62025;39.238;9.126;2024-03-23T16:19:48;20.50;57.60
63047;DHT22;62025;39.238;9.126;2024-03-23T16:22:15;20.60;57.70
63047;DHT22;62025;39.238;9.126;2024-03-23T16:24:40;20.50;57.90
63047;DHT22;62025;39.238;9.126;2024-03-23T16:27:07;20.40;58.20
63047;DHT22;62025;39.238;9.126;2024-03-23T16:29:33;20.40;58.30
63047;DHT22;62025;39.238;9.126;2024-03-23T16:31:59;20.40;58.30
63047;DHT22;62025;39.238;9.126;2024-03-23T16:34:25;20.40;58.30
63047;DHT22;62025;39.238;9.126;2024-03-23T16:36:51;20.40;58.60
63047;DHT22;62025;39.238;9.126;2024-03-23T16:39:18;20.40;58.80
63047;DHT22;62025;39.238;9.126;2024-03-23T16:41:44;20.30;58.80
63047;DHT22;62025;39.238;9.126;2024-03-23T16:44:10;20.40;58.90